createdAt,value
2023-04-07T00:00:53.156Z,3.42
2023-04-07T00:01:53.525Z,3.39
2023-04-07T00:02:53.898Z,3.32
2023-04-07T00:03:54.676Z,3.29
2023-04-07T00:04:54.304Z,3.26
2023-04-07T00:05:54.560Z,3.24
2023-04-07T00:06:54.840Z,3.28
2023-04-07T00:07:56.837Z,3.29
2023-04-07T00:08:55.534Z,3.32
2023-04-07T00:09:55.754Z,3.32
2023-04-07T00:10:56.069Z,3.35
2023-04-07T00:11:56.384Z,3.39
2023-04-07T00:12:56.728Z,3.40
2023-04-07T00:13:57.145Z,3.40
2023-04-07T00:14:57.366Z,3.39
2023-04-07T00:15:57.602Z,3.33
2023-04-07T00:16:57.929Z,3.36
2023-04-07T00:17:58.316Z,3.39
2023-04-07T00:18:58.495Z,3.39
2023-04-07T00:19:58.953Z,3.35
2023-04-07T00:20:59.134Z,3.32
2023-04-07T00:21:59.459Z,3.28
2023-04-07T00:22:59.788Z,3.24
2023-04-07T00:24:00.131Z,3.24
2023-04-07T00:25:00.430Z,3.26
2023-04-07T00:26:00.769Z,3.23
2023-04-07T00:27:01.055Z,3.23
2023-04-07T00:28:01.374Z,3.26
2023-04-07T00:29:01.585Z,3.26
2023-04-07T00:30:01.914Z,3.28
2023-04-07T00:31:02.259Z,3.24
2023-04-07T00:32:02.565Z,3.26
2023-04-07T00:33:02.904Z,3.23
2023-04-07T00:34:03.205Z,3.24
2023-04-07T00:35:03.552Z,3.24
2023-04-07T00:36:03.845Z,3.26
2023-04-07T00:37:04.215Z,3.24
2023-04-07T00:38:04.534Z,3.26
2023-04-07T00:39:04.829Z,3.24
2023-04-07T00:40:05.177Z,3.23
2023-04-07T00:41:05.491Z,3.23
2023-04-07T00:42:05.713Z,3.20
2023-04-07T00:43:06.035Z,3.18
2023-04-07T00:44:06.340Z,3.20
2023-04-07T00:45:06.650Z,3.20
2023-04-07T00:46:07.004Z,3.21
2023-04-07T00:47:07.326Z,3.24
2023-04-07T00:48:07.565Z,3.21
2023-04-07T00:49:09.318Z,3.17
2023-04-07T00:50:08.010Z,3.15
2023-04-07T00:51:08.375Z,3.15
2023-04-07T00:52:08.598Z,3.08
2023-04-07T00:53:08.911Z,3.05
2023-04-07T00:54:09.203Z,3.06
2023-04-07T00:55:09.508Z,3.05
2023-04-07T00:56:09.874Z,3.02
2023-04-07T00:57:10.092Z,3.00
2023-04-07T00:58:10.429Z,3.02
2023-04-07T00:59:10.750Z,3.03
2023-04-07T01:00:11.064Z,3.05
2023-04-07T01:01:11.431Z,3.06
2023-04-07T01:02:11.713Z,3.08
2023-04-07T01:03:12.071Z,3.11
2023-04-07T01:04:12.272Z,3.17
2023-04-07T01:05:12.584Z,3.18
2023-04-07T01:06:12.782Z,3.18
2023-04-07T01:07:13.094Z,3.18
2023-04-07T01:08:13.503Z,3.18
2023-04-07T01:09:13.663Z,3.17
2023-04-07T01:10:13.995Z,3.17
2023-04-07T01:11:14.324Z,3.18
2023-04-07T01:12:14.674Z,3.20
2023-04-07T01:13:14.995Z,3.21
2023-04-07T01:14:15.219Z,3.29
2023-04-07T01:15:15.568Z,3.28
2023-04-07T01:16:15.884Z,3.28
2023-04-07T01:17:16.169Z,3.26
2023-04-07T01:18:16.503Z,3.29
2023-04-07T01:19:16.810Z,3.28
2023-04-07T01:20:17.125Z,3.29
2023-04-07T01:21:17.457Z,3.31
2023-04-07T01:22:17.793Z,3.33
2023-04-07T01:23:18.102Z,3.35
2023-04-07T01:24:18.481Z,3.36
2023-04-07T01:25:18.667Z,3.36
2023-04-07T01:26:18.978Z,3.39
2023-04-07T01:27:19.292Z,3.39
2023-04-07T01:28:19.667Z,3.42
2023-04-07T01:29:19.849Z,3.45
2023-04-07T01:30:20.162Z,3.47
2023-04-07T01:31:20.517Z,3.50
2023-04-07T01:32:20.848Z,3.51
2023-04-07T01:33:21.153Z,3.52
2023-04-07T01:34:21.474Z,3.54
2023-04-07T01:35:21.853Z,3.54
2023-04-07T01:36:22.019Z,3.52
2023-04-07T01:37:22.381Z,3.52
2023-04-07T01:38:22.619Z,3.52
2023-04-07T01:39:22.814Z,3.48
2023-04-07T01:40:23.198Z,3.51
2023-04-07T01:41:23.368Z,3.50
2023-04-07T01:42:23.684Z,3.50
2023-04-07T01:43:24.059Z,3.50
2023-04-07T01:44:24.384Z,3.50
2023-04-07T01:45:24.694Z,3.50
2023-04-07T01:46:25.027Z,3.50
2023-04-07T01:47:25.538Z,3.48
2023-04-07T01:48:25.650Z,3.45
2023-04-07T01:49:26.038Z,3.43
2023-04-07T01:50:26.201Z,3.40
2023-04-07T01:51:26.522Z,3.40
2023-04-07T01:52:26.854Z,3.43
2023-04-07T01:53:27.099Z,3.47
2023-04-07T01:54:27.311Z,3.43
2023-04-07T01:55:27.625Z,3.42
2023-04-07T01:56:27.961Z,3.42
2023-04-07T01:57:28.283Z,3.40
2023-04-07T01:58:28.680Z,3.39
2023-04-07T01:59:28.839Z,3.42
2023-04-07T02:00:29.131Z,3.39
2023-04-07T02:01:29.780Z,3.35
2023-04-07T02:02:29.936Z,3.29
2023-04-07T02:03:30.018Z,3.21
2023-04-07T02:04:30.252Z,3.18
2023-04-07T02:05:30.571Z,3.21
2023-04-07T02:06:30.914Z,3.17
2023-04-07T02:07:31.121Z,3.14
2023-04-07T02:08:32.318Z,3.11
2023-04-07T02:09:31.722Z,3.15
2023-04-07T02:10:32.046Z,3.17
2023-04-07T02:11:32.371Z,3.15
2023-04-07T02:12:32.707Z,3.13
2023-04-07T02:13:32.923Z,3.14
2023-04-07T02:14:33.294Z,3.14
2023-04-07T02:15:33.496Z,3.14
2023-04-07T02:16:33.862Z,3.14
2023-04-07T02:17:34.073Z,3.10
2023-04-07T02:18:34.390Z,3.13
2023-04-07T02:19:34.746Z,3.11
2023-04-07T02:20:35.066Z,3.08
2023-04-07T02:21:35.293Z,3.08
2023-04-07T02:22:35.584Z,3.08
2023-04-07T02:23:36.014Z,3.10
2023-04-07T02:24:36.177Z,3.10
2023-04-07T02:25:36.537Z,3.10
2023-04-07T02:26:36.748Z,3.13
2023-04-07T02:27:37.069Z,3.15
2023-04-07T02:28:37.434Z,3.18
2023-04-07T02:29:37.602Z,3.20
2023-04-07T02:30:37.959Z,3.23
2023-04-07T02:31:38.190Z,3.23
2023-04-07T02:32:38.615Z,3.26
2023-04-07T02:33:38.791Z,3.28
2023-04-07T02:34:39.154Z,3.31
2023-04-07T02:35:39.330Z,3.32
2023-04-07T02:36:39.713Z,3.33
2023-04-07T02:37:40.009Z,3.36
2023-04-07T02:38:40.327Z,3.39
2023-04-07T02:39:40.658Z,3.36
2023-04-07T02:40:40.958Z,3.39
2023-04-07T02:41:41.310Z,3.40
2023-04-07T02:42:41.677Z,3.39
2023-04-07T02:43:41.859Z,3.39
2023-04-07T02:44:42.196Z,3.36
2023-04-07T02:45:42.586Z,3.39
2023-04-07T02:46:42.821Z,3.39
2023-04-07T02:47:43.121Z,3.35
2023-04-07T02:48:43.269Z,3.32
2023-04-07T02:49:43.635Z,3.32
2023-04-07T02:50:43.972Z,3.33
2023-04-07T02:51:44.163Z,3.36
2023-04-07T02:52:44.517Z,3.33
2023-04-07T02:53:44.758Z,3.36
2023-04-07T02:54:45.002Z,3.36
2023-04-07T02:55:45.242Z,3.39
2023-04-07T02:56:45.473Z,3.39
2023-04-07T02:57:45.661Z,3.36
2023-04-07T02:58:45.989Z,3.39
2023-04-07T02:59:46.387Z,3.36
2023-04-07T03:00:46.877Z,3.35
2023-04-07T03:01:46.993Z,3.33
2023-04-07T03:02:47.414Z,3.32
2023-04-07T03:03:47.580Z,3.29
2023-04-07T03:04:47.818Z,3.31
2023-04-07T03:05:48.132Z,3.26
2023-04-07T03:06:48.466Z,3.26
2023-04-07T03:07:48.813Z,3.24
2023-04-07T03:08:49.117Z,3.21
2023-04-07T03:09:49.472Z,3.18
2023-04-07T03:10:49.772Z,3.17
2023-04-07T03:11:50.116Z,3.15
2023-04-07T03:12:50.490Z,3.14
2023-04-07T03:13:50.957Z,3.14
2023-04-07T03:14:50.982Z,3.15
2023-04-07T03:15:51.317Z,3.11
2023-04-07T03:16:51.697Z,3.08
2023-04-07T03:17:52.047Z,3.08
2023-04-07T03:18:52.195Z,3.05
2023-04-07T03:19:52.541Z,3.08
2023-04-07T03:20:52.925Z,3.03
2023-04-07T03:21:53.098Z,2.96
2023-04-07T03:22:53.441Z,2.93
2023-04-07T03:23:54.045Z,2.93
2023-04-07T03:24:54.101Z,2.92
2023-04-07T03:25:54.436Z,2.95
2023-04-07T03:26:54.772Z,2.96
2023-04-07T03:27:55.100Z,2.96
2023-04-07T03:28:55.420Z,2.97
2023-04-07T03:29:55.726Z,2.97
2023-04-07T03:30:56.103Z,3.00
2023-04-07T03:31:56.374Z,3.00
2023-04-07T03:32:56.749Z,3.00
2023-04-07T03:33:57.066Z,3.03
2023-04-07T03:34:57.308Z,3.06
2023-04-07T03:35:57.535Z,3.11
2023-04-07T03:36:57.833Z,3.10
2023-04-07T03:37:58.197Z,3.11
2023-04-07T03:38:58.382Z,3.14
2023-04-07T03:39:58.714Z,3.17
2023-04-07T03:40:59.040Z,3.18
2023-04-07T03:42:07.098Z,3.21
2023-04-07T03:42:59.663Z,3.21
2023-04-07T03:43:59.946Z,3.20
2023-04-07T03:45:00.264Z,3.21
2023-04-07T03:46:00.630Z,3.18
2023-04-07T03:47:00.909Z,3.20
2023-04-07T03:48:01.240Z,3.20
2023-04-07T03:49:01.528Z,3.20
2023-04-07T03:50:01.847Z,3.20
2023-04-07T03:51:02.240Z,3.20
2023-04-07T03:52:02.414Z,3.20
2023-04-07T03:53:02.698Z,3.20
2023-04-07T03:54:02.980Z,3.18
2023-04-07T03:55:03.285Z,3.23
2023-04-07T03:56:03.607Z,3.23
2023-04-07T03:57:03.921Z,3.24
2023-04-07T03:58:04.236Z,3.24
2023-04-07T03:59:04.545Z,3.21
2023-04-07T04:00:04.851Z,3.18
2023-04-07T04:01:05.177Z,3.15
2023-04-07T04:02:05.482Z,3.11
2023-04-07T04:03:05.848Z,3.11
2023-04-07T04:04:06.758Z,3.10
2023-04-07T04:05:06.579Z,3.06
2023-04-07T04:06:06.674Z,3.03
2023-04-07T04:07:07.027Z,3.00
2023-04-07T04:08:07.396Z,3.00
2023-04-07T04:09:07.700Z,2.99
2023-04-07T04:10:08.002Z,3.00
2023-04-07T04:11:08.313Z,3.00
2023-04-07T04:12:08.630Z,3.03
2023-04-07T04:13:08.945Z,3.03
2023-04-07T04:14:09.282Z,3.03
2023-04-07T04:15:09.571Z,3.02
2023-04-07T04:16:10.063Z,3.00
2023-04-07T04:17:10.230Z,2.99
2023-04-07T04:18:10.593Z,3.00
2023-04-07T04:19:10.787Z,3.02
2023-04-07T04:20:11.133Z,2.99
2023-04-07T04:21:11.454Z,2.96
2023-04-07T04:22:11.775Z,2.99
2023-04-07T04:23:12.132Z,3.00
2023-04-07T04:24:12.349Z,3.00
2023-04-07T04:25:12.702Z,2.97
2023-04-07T04:26:13.022Z,2.96
2023-04-07T04:27:13.269Z,2.97
2023-04-07T04:28:13.629Z,2.97
2023-04-07T04:29:13.831Z,2.95
2023-04-07T04:30:14.171Z,2.97
2023-04-07T04:31:14.430Z,2.96
2023-04-07T04:32:14.755Z,2.95
2023-04-07T04:33:14.971Z,2.95
2023-04-07T04:34:15.318Z,2.93
2023-04-07T04:35:15.539Z,2.90
2023-04-07T04:36:15.824Z,2.93
2023-04-07T04:37:16.015Z,2.95
2023-04-07T04:38:16.377Z,2.96
2023-04-07T04:39:16.579Z,2.97
2023-04-07T04:40:16.923Z,2.97
2023-04-07T04:41:17.258Z,2.99
2023-04-07T04:42:17.608Z,3.02
2023-04-07T04:43:17.940Z,3.05
2023-04-07T04:44:18.293Z,3.06
2023-04-07T04:45:18.624Z,3.08
2023-04-07T04:46:18.961Z,3.10
2023-04-07T04:47:19.249Z,3.11
2023-04-07T04:48:19.488Z,3.14
2023-04-07T04:49:19.746Z,3.17
2023-04-07T04:50:19.963Z,3.18
2023-04-07T04:51:20.278Z,3.20
2023-04-07T04:52:20.649Z,3.20
2023-04-07T04:53:20.858Z,3.23
2023-04-07T04:54:21.085Z,3.26
2023-04-07T04:55:21.456Z,3.26
2023-04-07T04:56:21.741Z,3.31
2023-04-07T04:57:21.966Z,3.31
2023-04-07T04:58:22.243Z,3.31
2023-04-07T04:59:22.489Z,3.29
2023-04-07T05:00:22.785Z,3.29
2023-04-07T05:01:23.001Z,3.29
2023-04-07T05:02:23.388Z,3.32
2023-04-07T05:03:23.652Z,3.31
2023-04-07T05:04:23.897Z,3.32
2023-04-07T05:05:24.049Z,3.32
2023-04-07T05:06:24.290Z,3.31
2023-04-07T05:07:24.565Z,3.29
2023-04-07T05:08:24.803Z,3.29
2023-04-07T05:09:25.057Z,3.28
2023-04-07T05:10:25.317Z,3.29
2023-04-07T05:11:25.615Z,3.26
2023-04-07T05:12:25.857Z,3.23
2023-04-07T05:13:26.145Z,3.18
2023-04-07T05:14:26.375Z,3.14
2023-04-07T05:15:26.633Z,3.15
2023-04-07T05:16:26.873Z,3.11
2023-04-07T05:17:27.153Z,3.08
2023-04-07T05:18:27.395Z,3.06
2023-04-07T05:19:27.686Z,3.05
2023-04-07T05:20:27.919Z,3.08
2023-04-07T05:21:28.165Z,3.08
2023-04-07T05:22:28.458Z,3.08
2023-04-07T05:23:28.683Z,3.08
2023-04-07T05:24:28.918Z,3.08
2023-04-07T05:25:29.162Z,3.11
2023-04-07T05:26:29.410Z,3.14
2023-04-07T05:27:29.935Z,3.17
2023-04-07T05:28:29.876Z,3.18
2023-04-07T05:29:30.122Z,3.18
2023-04-07T05:30:30.375Z,3.15
2023-04-07T05:31:30.626Z,3.13
2023-04-07T05:32:30.902Z,3.10
2023-04-07T05:33:31.140Z,3.08
2023-04-07T05:34:31.359Z,3.06
2023-04-07T05:35:31.602Z,3.05
2023-04-07T05:36:31.950Z,3.02
2023-04-07T05:37:32.165Z,2.97
2023-04-07T05:38:32.424Z,2.96
2023-04-07T05:39:32.648Z,2.96
2023-04-07T05:40:33.712Z,2.96
2023-04-07T05:41:33.267Z,2.99
2023-04-07T05:42:33.535Z,2.99
2023-04-07T05:43:33.769Z,2.97
2023-04-07T05:44:34.015Z,2.95
2023-04-07T05:45:34.301Z,2.93
2023-04-07T05:46:34.553Z,2.95
2023-04-07T05:47:34.874Z,2.95
2023-04-07T05:48:35.112Z,2.97
2023-04-07T05:49:35.369Z,2.96
2023-04-07T05:50:35.623Z,2.95
2023-04-07T05:51:35.887Z,2.95
2023-04-07T05:52:36.138Z,2.99
2023-04-07T05:53:36.410Z,2.99
2023-04-07T05:54:36.633Z,3.02
2023-04-07T05:55:36.990Z,3.06
2023-04-07T05:56:37.224Z,3.05
2023-04-07T05:57:37.422Z,3.06
2023-04-07T05:58:37.722Z,3.10
2023-04-07T05:59:38.040Z,3.13
2023-04-07T06:00:38.290Z,3.14
2023-04-07T06:01:38.602Z,3.17
2023-04-07T06:02:38.964Z,3.23
2023-04-07T06:03:39.237Z,3.29
2023-04-07T06:04:39.573Z,3.32
2023-04-07T06:05:39.846Z,3.39
2023-04-07T06:06:40.087Z,3.42
2023-04-07T06:07:40.334Z,3.47
2023-04-07T06:08:40.600Z,3.51
2023-04-07T06:09:40.812Z,3.57
2023-04-07T06:10:41.056Z,3.60
2023-04-07T06:11:41.297Z,3.62
2023-04-07T06:12:41.542Z,3.65
2023-04-07T06:13:41.783Z,3.68
2023-04-07T06:14:41.992Z,3.69
2023-04-07T06:15:42.236Z,3.69
2023-04-07T06:16:42.480Z,3.68
2023-04-07T06:17:42.730Z,3.66
2023-04-07T06:18:42.946Z,3.60
2023-04-07T06:19:43.164Z,3.55
2023-04-07T06:20:43.421Z,3.57
2023-04-07T06:21:43.633Z,3.57
2023-04-07T06:22:43.897Z,3.52
2023-04-07T06:23:44.148Z,3.50
2023-04-07T06:24:44.371Z,3.47
2023-04-07T06:25:44.611Z,3.42
2023-04-07T06:26:44.840Z,3.36
2023-04-07T06:27:45.081Z,3.33
2023-04-07T06:28:45.358Z,3.32
2023-04-07T06:29:45.565Z,3.32
2023-04-07T06:30:45.820Z,3.33
2023-04-07T06:31:46.019Z,3.33
2023-04-07T06:32:46.286Z,3.36
2023-04-07T06:33:46.958Z,3.36
2023-04-07T06:34:46.845Z,3.39
2023-04-07T06:35:47.075Z,3.42
2023-04-07T06:36:47.331Z,3.45
2023-04-07T06:37:47.575Z,3.48
2023-04-07T06:38:47.824Z,3.54
2023-04-07T06:39:48.046Z,3.58
2023-04-07T06:40:48.425Z,3.61
2023-04-07T06:41:48.665Z,3.66
2023-04-07T06:42:48.941Z,3.70
2023-04-07T06:43:49.398Z,3.73
2023-04-07T06:44:49.429Z,3.76
2023-04-07T06:45:49.823Z,3.76
2023-04-07T06:46:50.037Z,3.79
2023-04-07T06:47:50.338Z,3.80
2023-04-07T06:48:50.539Z,3.79
2023-04-07T06:49:51.167Z,3.84
2023-04-07T06:50:51.110Z,3.84
2023-04-07T06:51:51.370Z,3.84
2023-04-07T06:52:51.622Z,3.87
2023-04-07T06:53:51.859Z,3.88
2023-04-07T06:54:52.082Z,3.87
2023-04-07T06:55:52.451Z,3.84
2023-04-07T06:56:53.649Z,3.80
2023-04-07T06:57:52.995Z,3.79
2023-04-07T06:58:53.209Z,3.76
2023-04-07T06:59:53.577Z,3.75
2023-04-07T07:00:53.801Z,3.75
2023-04-07T07:01:54.125Z,3.76
2023-04-07T07:02:54.507Z,3.73
2023-04-07T07:03:54.726Z,3.72
2023-04-07T07:04:54.847Z,3.70
2023-04-07T07:05:55.087Z,3.69
2023-04-07T07:06:55.363Z,3.69
2023-04-07T07:07:55.582Z,3.69
2023-04-07T07:08:55.826Z,3.72
2023-04-07T07:09:56.082Z,3.72
2023-04-07T07:10:56.306Z,3.75
2023-04-07T07:11:56.535Z,3.76
2023-04-07T07:12:56.777Z,3.76
2023-04-07T07:13:57.005Z,3.79
2023-04-07T07:14:57.255Z,3.83
2023-04-07T07:15:57.529Z,3.86
2023-04-07T07:16:57.731Z,3.86
2023-04-07T07:17:57.997Z,3.88
2023-04-07T07:18:58.203Z,3.91
2023-04-07T07:19:58.451Z,3.93
2023-04-07T07:20:58.676Z,3.96
2023-04-07T07:21:58.904Z,3.96
2023-04-07T07:22:59.153Z,3.96
2023-04-07T07:23:59.411Z,3.98
2023-04-07T07:24:59.637Z,3.96
2023-04-07T07:25:59.886Z,3.96
2023-04-07T07:27:00.146Z,3.96
2023-04-07T07:28:00.392Z,3.94
2023-04-07T07:29:00.596Z,3.94
2023-04-07T07:30:00.836Z,3.97
2023-04-07T07:31:01.130Z,3.98
2023-04-07T07:32:01.381Z,4.04
2023-04-07T07:33:01.667Z,4.06
2023-04-07T07:34:01.889Z,4.12
2023-04-07T07:35:02.123Z,4.15
2023-04-07T07:36:02.336Z,4.20
2023-04-07T07:37:02.871Z,4.26
2023-04-07T07:38:02.983Z,4.26
2023-04-07T07:39:03.210Z,4.22
2023-04-07T07:40:03.455Z,4.23
2023-04-07T07:41:03.689Z,4.24
2023-04-07T07:42:03.932Z,4.27
2023-04-07T07:43:04.193Z,4.29
2023-04-07T07:44:04.413Z,4.33
2023-04-07T07:45:04.640Z,4.34
2023-04-07T07:46:04.907Z,4.37
2023-04-07T07:47:05.169Z,4.42
2023-04-07T07:48:05.415Z,4.42
2023-04-07T07:49:05.628Z,4.45
2023-04-07T07:50:05.989Z,4.44
2023-04-07T07:51:06.250Z,4.45
2023-04-07T07:52:07.055Z,4.45
2023-04-07T07:53:06.816Z,4.45
2023-04-07T07:54:07.046Z,4.44
2023-04-07T07:55:07.274Z,4.42
2023-04-07T07:56:07.624Z,4.42
2023-04-07T07:57:07.838Z,4.45
2023-04-07T07:58:08.103Z,4.42
2023-04-07T07:59:08.327Z,4.44
2023-04-07T08:00:08.670Z,4.44
2023-04-07T08:01:09.033Z,4.40
2023-04-07T08:02:09.435Z,4.41
2023-04-07T08:03:09.651Z,4.42
2023-04-07T08:04:10.038Z,4.45
2023-04-07T08:05:10.101Z,4.48
2023-04-07T08:06:10.453Z,4.50
2023-04-07T08:07:10.683Z,4.50
2023-04-07T08:08:10.924Z,4.50
2023-04-07T08:09:11.148Z,4.54
2023-04-07T08:10:12.194Z,4.55
2023-04-07T08:11:11.727Z,4.58
2023-04-07T08:12:11.930Z,4.58
2023-04-07T08:13:12.296Z,4.59
2023-04-07T08:14:12.521Z,4.60
2023-04-07T08:15:12.878Z,4.60
2023-04-07T08:16:13.179Z,4.63
2023-04-07T08:17:13.395Z,4.63
2023-04-07T08:18:14.785Z,4.66
2023-04-07T08:19:13.909Z,4.66
2023-04-07T08:20:14.268Z,4.67
2023-04-07T08:21:14.506Z,4.66
2023-04-07T08:22:14.718Z,4.66
2023-04-07T08:23:15.074Z,4.67
2023-04-07T08:24:15.282Z,4.69
2023-04-07T08:25:15.623Z,4.70
2023-04-07T08:26:15.971Z,4.70
2023-04-07T08:27:16.229Z,4.72
2023-04-07T08:28:16.997Z,4.73
2023-04-07T08:29:16.781Z,4.75
2023-04-07T08:30:17.112Z,4.75
2023-04-07T08:31:17.405Z,4.77
2023-04-07T08:32:17.603Z,4.75
2023-04-07T08:33:17.913Z,4.73
2023-04-07T08:34:18.141Z,4.73
2023-04-07T08:35:18.362Z,4.70
2023-04-07T08:36:18.760Z,4.69
2023-04-07T08:37:18.953Z,4.67
2023-04-07T08:38:19.928Z,4.69
2023-04-07T08:39:19.508Z,4.66
2023-04-07T08:40:19.748Z,4.65
2023-04-07T08:41:20.045Z,4.66
2023-04-07T08:42:21.073Z,4.66
2023-04-07T08:43:20.594Z,4.67
2023-04-07T08:44:20.816Z,4.67
2023-04-07T08:45:21.152Z,4.67
2023-04-07T08:46:21.550Z,4.66
2023-04-07T08:47:21.824Z,4.67
2023-04-07T08:48:22.053Z,4.67
2023-04-07T08:49:22.261Z,4.66
2023-04-07T08:50:23.534Z,4.66
2023-04-07T08:51:22.933Z,4.65
2023-04-07T08:52:23.174Z,4.65
2023-04-07T08:53:23.430Z,4.63
2023-04-07T08:54:23.654Z,4.66
2023-04-07T08:55:23.907Z,4.69
2023-04-07T08:56:24.118Z,4.70
2023-04-07T08:57:24.378Z,4.70
2023-04-07T08:58:25.490Z,4.72
2023-04-07T08:59:24.961Z,4.73
2023-04-07T09:00:25.134Z,4.75
2023-04-07T09:01:25.444Z,4.75
2023-04-07T09:02:25.806Z,4.77
2023-04-07T09:03:25.995Z,4.77
2023-04-07T09:04:26.208Z,4.77
2023-04-07T09:05:26.416Z,4.78
2023-04-07T09:06:26.681Z,4.77
2023-04-07T09:07:26.909Z,4.77
2023-04-07T09:08:27.258Z,4.77
2023-04-07T09:09:27.503Z,4.80
2023-04-07T09:10:27.724Z,4.82
2023-04-07T09:11:28.065Z,4.82
2023-04-07T09:12:28.298Z,4.84
2023-04-07T09:13:28.643Z,4.84
2023-04-07T09:14:28.888Z,4.80
2023-04-07T09:15:29.956Z,4.77
2023-04-07T09:16:29.459Z,4.73
2023-04-07T09:17:29.687Z,4.73
2023-04-07T09:18:29.967Z,4.72
2023-04-07T09:19:30.238Z,4.72
2023-04-07T09:20:30.510Z,4.75
2023-04-07T09:21:30.772Z,4.78
2023-04-07T09:22:31.030Z,4.82
2023-04-07T09:23:31.302Z,4.84
2023-04-07T09:24:31.569Z,4.84
2023-04-07T09:25:31.819Z,4.84
2023-04-07T09:26:32.136Z,4.82
2023-04-07T09:27:32.422Z,4.82
2023-04-07T09:28:32.727Z,4.85
2023-04-07T09:29:32.979Z,4.86
2023-04-07T09:30:33.263Z,4.88
2023-04-07T09:31:33.573Z,4.91
2023-04-07T09:32:33.799Z,4.91
2023-04-07T09:33:34.159Z,4.94
2023-04-07T09:34:34.274Z,4.96
2023-04-07T09:35:34.592Z,4.96
2023-04-07T09:36:34.856Z,4.99
2023-04-07T09:37:35.112Z,4.99
2023-04-07T09:38:35.386Z,4.99
2023-04-07T09:39:35.658Z,5.00
2023-04-07T09:40:36.074Z,5.00
2023-04-07T09:41:36.186Z,5.02
2023-04-07T09:42:36.445Z,5.03
2023-04-07T09:43:36.703Z,5.06
2023-04-07T09:44:36.963Z,5.06
2023-04-07T09:45:37.609Z,5.06
2023-04-07T09:46:37.708Z,5.07
2023-04-07T09:47:37.806Z,5.06
2023-04-07T09:48:38.160Z,5.06
2023-04-07T09:49:38.421Z,5.06
2023-04-07T09:50:39.233Z,5.06
2023-04-07T09:51:38.886Z,5.06
2023-04-07T09:52:39.114Z,5.06
2023-04-07T09:53:39.378Z,5.10
2023-04-07T09:54:39.587Z,5.12
2023-04-07T09:55:42.989Z,5.10
2023-04-07T09:56:40.177Z,5.07
2023-04-07T09:57:40.454Z,5.07
2023-04-07T09:58:40.722Z,5.10
2023-04-07T09:59:40.941Z,5.09
2023-04-07T10:00:41.418Z,5.10
2023-04-07T10:01:41.598Z,5.12
2023-04-07T10:02:41.879Z,5.13
2023-04-07T10:03:42.910Z,5.13
2023-04-07T10:04:42.450Z,5.13
2023-04-07T10:05:42.678Z,5.15
2023-04-07T10:06:42.917Z,5.15
2023-04-07T10:07:43.159Z,5.18
2023-04-07T10:08:43.410Z,5.20
2023-04-07T10:09:43.637Z,5.22
2023-04-07T10:10:43.996Z,5.24
2023-04-07T10:11:44.218Z,5.24
2023-04-07T10:12:44.554Z,5.25
2023-04-07T10:13:44.920Z,5.27
2023-04-07T10:14:45.168Z,5.28
2023-04-07T10:15:45.406Z,5.30
2023-04-07T10:16:45.821Z,5.33
2023-04-07T10:17:46.077Z,5.28
2023-04-07T10:18:46.257Z,5.28
2023-04-07T10:19:46.483Z,5.30
2023-04-07T10:20:46.758Z,5.31
2023-04-07T10:21:46.933Z,5.31
2023-04-07T10:22:47.193Z,5.31
2023-04-07T10:23:47.819Z,5.35
2023-04-07T10:24:47.783Z,5.36
2023-04-07T10:25:48.027Z,5.36
2023-04-07T10:26:48.255Z,5.38
2023-04-07T10:27:48.614Z,5.38
2023-04-07T10:28:48.852Z,5.36
2023-04-07T10:29:49.090Z,5.38
2023-04-07T10:30:49.331Z,5.39
2023-04-07T10:31:49.558Z,5.39
2023-04-07T10:32:49.929Z,5.40
2023-04-07T10:33:50.248Z,5.40
2023-04-07T10:34:50.265Z,5.42
2023-04-07T10:35:50.524Z,5.43
2023-04-07T10:36:50.839Z,5.43
2023-04-07T10:37:51.120Z,5.43
2023-04-07T10:38:51.364Z,5.43
2023-04-07T10:39:51.602Z,5.43
2023-04-07T10:40:51.867Z,5.45
2023-04-07T10:41:52.133Z,5.45
2023-04-07T10:42:52.367Z,5.48
2023-04-07T10:43:52.635Z,5.48
2023-04-07T10:44:52.870Z,5.49
2023-04-07T10:45:53.104Z,5.49
2023-04-07T10:46:53.330Z,5.48
2023-04-07T10:47:53.613Z,5.51
2023-04-07T10:48:54.024Z,5.51
2023-04-07T10:49:54.243Z,5.49
2023-04-07T10:50:54.395Z,5.46
2023-04-07T10:51:54.622Z,5.46
2023-04-07T10:52:54.853Z,5.46
2023-04-07T10:53:55.102Z,5.48
2023-04-07T10:54:55.332Z,5.49
2023-04-07T10:55:55.561Z,5.53
2023-04-07T10:56:55.915Z,5.54
2023-04-07T10:57:56.145Z,5.53
2023-04-07T10:58:56.389Z,5.51
2023-04-07T10:59:58.291Z,5.49
2023-04-07T11:00:56.857Z,5.49
2023-04-07T11:01:57.195Z,5.51
2023-04-07T11:02:57.792Z,5.54
2023-04-07T11:03:57.863Z,5.56
2023-04-07T11:04:57.928Z,5.56
2023-04-07T11:05:58.279Z,5.54
2023-04-07T11:06:58.501Z,5.56
2023-04-07T11:07:58.875Z,5.58
2023-04-07T11:08:59.091Z,5.60
2023-04-07T11:09:59.444Z,5.61
2023-04-07T11:10:59.695Z,5.61
2023-04-07T11:11:59.915Z,5.64
2023-04-07T11:13:00.301Z,5.67
2023-04-07T11:14:00.549Z,5.67
2023-04-07T11:15:00.865Z,5.65
2023-04-07T11:16:01.195Z,5.67
2023-04-07T11:17:01.441Z,5.64
2023-04-07T11:18:01.763Z,5.64
2023-04-07T11:19:01.947Z,5.65
2023-04-07T11:20:02.213Z,5.64
2023-04-07T11:21:02.461Z,5.65
2023-04-07T11:22:02.676Z,5.67
2023-04-07T11:23:03.052Z,5.74
2023-04-07T11:24:03.278Z,5.75
2023-04-07T11:25:03.524Z,5.76
2023-04-07T11:26:03.752Z,5.78
2023-04-07T11:27:03.975Z,5.79
2023-04-07T11:28:04.225Z,5.78
2023-04-07T11:29:05.241Z,5.76
2023-04-07T11:30:04.771Z,5.79
2023-04-07T11:31:05.029Z,5.82
2023-04-07T11:32:05.237Z,5.86
2023-04-07T11:33:05.497Z,5.85
2023-04-07T11:34:05.768Z,5.85
2023-04-07T11:35:06.005Z,5.86
2023-04-07T11:36:06.284Z,5.89
2023-04-07T11:37:06.534Z,5.93
2023-04-07T11:38:06.763Z,5.93
2023-04-07T11:39:07.029Z,5.93
2023-04-07T11:40:07.239Z,5.94
2023-04-07T11:41:07.464Z,5.96
2023-04-07T11:42:07.839Z,5.94
2023-04-07T11:43:08.064Z,5.93
2023-04-07T11:44:08.302Z,5.90
2023-04-07T11:45:08.773Z,5.91
2023-04-07T11:46:08.996Z,5.93
2023-04-07T11:47:09.269Z,5.91
2023-04-07T11:48:09.552Z,5.91
2023-04-07T11:49:09.733Z,5.94
2023-04-07T11:50:10.311Z,5.96
2023-04-07T11:51:10.198Z,6.00
2023-04-07T11:52:10.448Z,6.04
2023-04-07T11:53:10.673Z,6.04
2023-04-07T11:54:10.909Z,6.08
2023-04-07T11:55:11.146Z,6.09
2023-04-07T11:56:11.392Z,6.12
2023-04-07T11:57:11.728Z,6.15
2023-04-07T11:58:11.985Z,6.17
2023-04-07T11:59:12.231Z,6.21
2023-04-07T12:00:12.471Z,6.25
2023-04-07T12:01:12.737Z,6.30
2023-04-07T12:02:13.057Z,6.31
2023-04-07T12:03:13.377Z,6.31
2023-04-07T12:04:13.850Z,6.30
2023-04-07T12:05:13.852Z,6.33
2023-04-07T12:06:14.056Z,6.30
2023-04-07T12:07:14.281Z,6.28
2023-04-07T12:08:14.631Z,6.30
2023-04-07T12:09:14.903Z,6.25
2023-04-07T12:10:15.148Z,6.19
2023-04-07T12:11:15.380Z,6.19
2023-04-07T12:12:15.626Z,6.22
2023-04-07T12:13:15.907Z,6.27
2023-04-07T12:14:16.102Z,6.27
2023-04-07T12:15:16.472Z,6.28
2023-04-07T12:16:16.716Z,6.30
2023-04-07T12:17:16.920Z,6.31
2023-04-07T12:18:17.302Z,6.30
2023-04-07T12:19:17.566Z,6.28
2023-04-07T12:20:17.795Z,6.27
2023-04-07T12:21:18.156Z,6.30
2023-04-07T12:22:18.397Z,6.34
2023-04-07T12:23:18.670Z,6.37
2023-04-07T12:24:18.883Z,6.43
2023-04-07T12:25:19.128Z,6.43
2023-04-07T12:26:21.744Z,6.48
2023-04-07T12:27:21.237Z,6.43
2023-04-07T12:28:20.935Z,6.41
2023-04-07T12:29:20.492Z,6.44
2023-04-07T12:30:20.547Z,6.46
2023-04-07T12:31:20.955Z,6.49
2023-04-07T12:32:21.282Z,6.52
2023-04-07T12:33:21.397Z,6.56
2023-04-07T12:34:21.642Z,6.55
2023-04-07T12:35:22.048Z,6.55
2023-04-07T12:36:22.231Z,6.56
2023-04-07T12:37:22.488Z,6.58
2023-04-07T12:38:22.728Z,6.61
2023-04-07T12:39:24.404Z,6.66
2023-04-07T12:40:23.187Z,6.69
2023-04-07T12:41:23.530Z,6.71
2023-04-07T12:42:24.663Z,6.73
2023-04-07T12:43:24.221Z,6.74
2023-04-07T12:44:24.450Z,6.76
2023-04-07T12:45:24.758Z,6.77
2023-04-07T12:46:25.115Z,6.77
2023-04-07T12:47:25.268Z,6.73
2023-04-07T12:48:25.519Z,6.74
2023-04-07T12:49:25.756Z,6.77
2023-04-07T12:50:26.014Z,6.76
2023-04-07T12:51:26.368Z,6.81
2023-04-07T12:52:26.575Z,6.81
2023-04-07T12:53:26.796Z,6.84
2023-04-07T12:54:27.038Z,6.85
2023-04-07T12:55:27.274Z,6.91
2023-04-07T12:56:27.534Z,6.98
2023-04-07T12:57:27.771Z,7.05
2023-04-07T12:58:28.027Z,7.12
2023-04-07T12:59:28.261Z,7.15
2023-04-07T13:00:28.532Z,7.21
2023-04-07T13:01:28.844Z,7.23
2023-04-07T13:02:29.216Z,7.20
2023-04-07T13:03:29.531Z,7.16
2023-04-07T13:04:29.631Z,7.20
2023-04-07T13:05:29.802Z,7.16
2023-04-07T13:06:30.061Z,7.15
2023-04-07T13:07:30.300Z,7.15
2023-04-07T13:08:30.556Z,7.16
2023-04-07T13:09:30.790Z,7.17
2023-04-07T13:10:31.116Z,7.12
2023-04-07T13:11:31.389Z,7.02
2023-04-07T13:12:31.613Z,6.97
2023-04-07T13:13:31.961Z,6.95
2023-04-07T13:14:32.164Z,6.97
2023-04-07T13:15:32.511Z,6.92
2023-04-07T13:16:32.833Z,6.94
2023-04-07T13:17:33.074Z,6.92
2023-04-07T13:18:33.395Z,6.89
2023-04-07T13:19:34.394Z,6.88
2023-04-07T13:20:34.000Z,6.89
2023-04-07T13:21:46.164Z,6.92
2023-04-07T13:22:36.001Z,6.95